Time;durP1;ratioP1;P1;durP2;ratioP2;P2;SDS_P1;SDS_P2;PMS_P1;PMS_P2;Temp;Humidity;BMP_temperature;BMP_pressure;BME280_temperature;BME280_humidity;BME280_pressure;Samples;Min_cycle;Max_cycle;Signal;HPM_P1;HPM_P2
2022/05/24 00:01:44;;;;;;;0.00;0.00;;;;;;;14.47;57.04;99747.94;7365935;19;20003;-61
2022/05/24 00:04:09;;;;;;;0.00;0.00;;;;;;;14.41;56.70;99758.78;7357565;19;20365;-61
2022/05/24 00:06:35;;;;;;;0.00;0.00;;;;;;;14.33;56.97;99759.16;7360684;19;20016;-62
2022/05/24 00:09:00;;;;;;;0.00;0.00;;;;;;;14.26;56.77;99758.66;7360851;19;19998;-62
2022/05/24 00:11:26;;;;;;;0.00;0.00;;;;;;;14.15;56.97;99753.13;7376853;19;21693;-61
2022/05/24 00:13:51;;;;;;;0.00;0.00;;;;;;;14.08;57.48;99762.22;7372413;19;20500;-61
2022/05/24 00:16:17;;;;;;;0.00;0.00;;;;;;;14.00;57.12;99764.41;7374754;19;20043;-61
2022/05/24 00:18:43;;;;;;;0.00;0.00;;;;;;;13.91;57.19;99759.63;7372996;19;20014;-61
2022/05/24 00:21:08;;;;;;;0.00;0.00;;;;;;;13.83;58.11;99756.56;7376212;19;20018;-61
2022/05/24 00:23:34;;;;;;;0.00;0.00;;;;;;;13.76;57.82;99761.28;7374945;19;20491;-61
2022/05/24 00:26:08;;;;;;;0.00;0.00;;;;;;;13.71;57.62;99751.00;7375619;19;20031;-61
2022/05/24 00:28:35;;;;;;;0.00;0.00;;;;;;;13.63;57.86;99750.53;7376086;19;20010;-62
2022/05/24 00:31:03;;;;;;;0.00;0.00;;;;;;;13.57;58.24;99740.34;7375821;19;20880;-61
2022/05/24 00:33:31;;;;;;;0.00;0.00;;;;;;;13.50;57.95;99745.06;7374438;19;20039;-62
2022/05/24 00:35:56;;;;;;;0.00;0.00;;;;;;;13.43;58.14;99748.06;7376319;19;20503;-61
2022/05/24 00:38:33;;;;;;;0.10;0.10;;;;;;;13.37;58.05;99751.00;7376078;19;20015;-61
2022/05/24 00:41:14;;;;;;;0.00;0.00;;;;;;;13.31;58.21;99748.69;7372806;19;20034;-61
2022/05/24 00:43:48;;;;;;;0.10;0.10;;;;;;;13.20;58.35;99752.63;7375950;19;20011;-61
2022/05/24 00:46:54;;;;;;;0.00;0.00;;;;;;;13.16;57.79;99752.84;7376769;19;20014;-61
2022/05/24 00:49:48;;;;;;;0.00;0.00;;;;;;;13.10;58.28;99748.78;7271148;19;2004603;-61
2022/05/24 00:52:13;;;;;;;0.00;0.00;;;;;;;13.05;59.53;99752.53;7269315;19;2004459;-61
2022/05/24 00:54:39;;;;;;;0.00;0.00;;;;;;;12.92;60.17;99737.38;7375411;19;20038;-61
2022/05/24 00:57:11;;;;;;;0.00;0.00;;;;;;;13.01;59.70;99751.81;7375003;19;20014;-61
2022/05/24 00:59:51;;;;;;;0.00;0.00;;;;;;;13.00;59.19;99755.38;7373796;19;20014;-61
2022/05/24 01:02:18;;;;;;;0.10;0.10;;;;;;;12.99;59.99;99753.69;7373363;19;20046;-61
2022/05/24 01:04:43;;;;;;;0.00;0.00;;;;;;;12.99;59.82;99764.16;7375959;19;20726;-61
2022/05/24 01:07:09;;;;;;;0.00;0.00;;;;;;;12.93;59.73;99743.50;7371903;19;20021;-61
2022/05/24 01:09:45;;;;;;;0.00;0.00;;;;;;;12.94;59.65;99748.66;7374966;19;20010;-61
2022/05/24 01:12:15;;;;;;;0.00;0.00;;;;;;;12.99;59.89;99758.94;7372729;19;20355;-61
2022/05/24 01:14:42;;;;;;;0.00;0.00;;;;;;;12.98;60.43;99759.84;7373905;19;20016;-61
2022/05/24 01:17:07;;;;;;;0.00;0.00;;;;;;;12.84;60.36;99739.53;7372695;19;22318;-61
2022/05/24 01:19:43;;;;;;;0.05;0.05;;;;;;;12.98;59.94;99767.72;7374818;19;20011;-61
2022/05/24 01:22:36;;;;;;;0.00;0.00;;;;;;;12.97;58.72;99766.00;7371720;19;20580;-61
2022/05/24 01:25:29;;;;;;;0.00;0.00;;;;;;;12.98;58.86;99767.72;7271857;19;2004476;-61
2022/05/24 01:27:55;;;;;;;0.00;0.00;;;;;;;12.82;60.43;99748.38;7269096;19;2004388;-61
2022/05/24 01:30:21;;;;;;;0.00;0.00;;;;;;;12.95;60.16;99767.84;7376213;19;20027;-61
2022/05/24 01:38:19;;;;;;;0.00;0.00;;;;;;;12.85;60.42;99753.47;7373905;19;20025;-61
2022/05/24 01:40:47;;;;;;;0.00;0.00;;;;;;;12.96;60.29;99769.53;7372601;19;20107;-61
2022/05/24 01:43:15;;;;;;;0.00;0.00;;;;;;;12.96;60.70;99766.91;7375554;19;20481;-61
2022/05/24 01:45:48;;;;;;;0.00;0.00;;;;;;;12.99;60.74;99769.41;7374035;19;20049;-61
2022/05/24 01:48:19;;;;;;;0.00;0.00;;;;;;;12.99;60.59;99769.41;7374320;19;20467;-61
2022/05/24 01:50:46;;;;;;;0.00;0.00;;;;;;;13.00;60.51;99765.84;7371522;19;20825;-61
2022/05/24 01:53:17;;;;;;;;;;;;;;;13.02;57.89;99760.53;7372624;19;20022;-61
2022/05/24 01:55:51;;;;;;;0.00;0.00;;;;;;;13.01;60.12;99767.53;7373043;19;19919;-60
2022/05/24 01:58:20;;;;;;;0.00;0.00;;;;;;;13.00;60.84;99768.47;7369895;19;20014;-61
2022/05/24 02:00:52;;;;;;;0.00;0.00;;;;;;;12.96;60.38;99753.81;7365665;19;20112;-61
2022/05/24 02:03:17;;;;;;;0.00;0.00;;;;;;;12.99;60.70;99772.03;7370395;19;20014;-61
2022/05/24 02:05:43;;;;;;;0.00;0.00;;;;;;;12.98;60.62;99762.47;7371360;19;20009;-61
2022/05/24 02:08:10;;;;;;;0.00;0.00;;;;;;;12.99;60.78;99766.78;7371444;19;20534;-61
2022/05/24 02:10:45;;;;;;;0.05;0.05;;;;;;;12.99;60.65;99772.03;7367657;19;20014;-61
2022/05/24 02:13:18;;;;;;;0.00;0.00;;;;;;;12.98;60.76;99772.94;7370837;19;20010;-61
2022/05/24 02:15:47;;;;;;;0.00;0.00;;;;;;;12.98;59.82;99776.41;7364779;19;20102;-61
2022/05/24 02:18:20;;;;;;;0.00;0.00;;;;;;;12.95;60.04;99775.72;7371699;19;20011;-61
2022/05/24 02:20:46;;;;;;;0.00;0.00;;;;;;;12.90;60.63;99778.53;7367137;19;20014;-61
2022/05/24 02:23:16;;;;;;;0.03;0.03;;;;;;;12.87;60.41;99776.06;7371629;19;20597;-61
2022/05/24 02:25:57;;;;;;;0.00;0.00;;;;;;;12.83;59.94;99778.91;7371402;19;20618;-61
2022/05/24 02:28:26;;;;;;;0.00;0.00;;;;;;;12.77;60.82;99779.19;7371385;19;20073;-61
2022/05/24 02:30:55;;;;;;;0.00;0.00;;;;;;;12.72;60.90;99782.88;7363608;19;20017;-61
2022/05/24 02:33:22;;;;;;;0.00;0.00;;;;;;;12.67;61.52;99779.63;7370067;19;20094;-61
2022/05/24 02:35:47;;;;;;;0.00;0.00;;;;;;;12.63;61.24;99780.69;7372115;19;20010;-61
2022/05/24 02:38:13;;;;;;;0.00;0.00;;;;;;;12.60;61.39;99783.44;7369247;19;20020;-61
2022/05/24 02:43:23;;;;;;;0.00;0.00;;;;;;;12.56;61.79;99776.63;7368801;19;20024;-61
2022/05/24 02:45:48;;;;;;;0.00;0.00;;;;;;;12.55;62.25;99779.31;7370497;19;20006;-61
2022/05/24 02:48:14;;;;;;;0.00;0.00;;;;;;;12.53;62.00;99778.56;7371156;19;20051;-61
2022/05/24 02:50:39;;;;;;;0.00;0.00;;;;;;;12.54;61.84;99783.72;7370012;19;20834;-61
2022/05/24 02:53:05;;;;;;;0.00;0.00;;;;;;;12.54;61.85;99778.47;7370242;19;20013;-61
2022/05/24 02:55:31;;;;;;;0.00;0.00;;;;;;;12.55;62.11;99780.16;7371254;19;20023;-61
2022/05/24 02:57:57;;;;;;;0.00;0.00;;;;;;;12.42;62.15;99760.72;7369124;19;20010;-61
2022/05/24 03:00:24;;;;;;;0.00;0.00;;;;;;;12.55;62.55;99780.16;7370425;19;20010;-61
2022/05/24 03:02:51;;;;;;;0.00;0.00;;;;;;;12.55;62.71;99785.41;7369513;19;20749;-61
2022/05/24 03:05:17;;;;;;;0.10;0.10;;;;;;;12.50;62.79;99782.16;7362497;19;20726;-61
2022/05/24 03:10:28;;;;;;;0.00;0.00;;;;;;;12.57;61.82;99787.94;7370364;19;20018;-61
2022/05/24 03:15:41;;;;;;;0.03;0.03;;;;;;;12.56;62.41;99792.34;7360660;19;20022;-61
2022/05/24 03:18:08;;;;;;;0.00;0.00;;;;;;;12.54;62.30;99796.81;7361387;19;20031;-61
2022/05/24 03:20:34;;;;;;;0.00;0.00;;;;;;;12.38;62.82;99769.63;7369724;19;20651;-61
2022/05/24 03:23:00;;;;;;;0.00;0.00;;;;;;;12.51;61.94;99789.06;7367876;19;20437;-61
2022/05/24 03:25:25;;;;;;;0.00;0.00;;;;;;;12.49;62.83;99796.16;7371993;19;20015;-62
2022/05/24 03:27:50;;;;;;;0.00;0.00;;;;;;;12.46;62.67;99801.53;7371223;19;20446;-61
2022/05/24 03:30:16;;;;;;;0.00;0.00;;;;;;;12.44;63.04;99788.50;7369197;19;20018;-61
2022/05/24 03:32:42;;;;;;;0.00;0.00;;;;;;;12.44;62.92;99792.91;7370198;19;20011;-61
2022/05/24 03:35:11;;;;;;;0.00;0.00;;;;;;;12.35;63.23;99782.84;7370461;19;20041;-61
2022/05/24 03:37:37;;;;;;;0.05;0.05;;;;;;;12.41;63.19;99793.03;7370377;19;20078;-61
2022/05/24 03:40:04;;;;;;;0.00;0.00;;;;;;;12.41;63.30;99793.03;7372418;19;22495;-61
2022/05/24 03:42:30;;;;;;;0.00;0.00;;;;;;;12.40;63.27;99802.66;7364362;19;20010;-61
2022/05/24 03:44:55;;;;;;;0.00;0.00;;;;;;;12.41;63.21;99806.13;7370650;19;20018;-62
2022/05/24 03:47:20;;;;;;;0.00;0.00;;;;;;;12.39;63.70;99797.50;7377967;19;20031;-61
2022/05/24 03:49:46;;;;;;;0.00;0.00;;;;;;;12.36;63.45;99801.09;7374549;19;20475;-61
2022/05/24 03:52:11;;;;;;;0.00;0.00;;;;;;;12.45;63.46;99815.53;7374789;19;20040;-61
2022/05/24 03:54:37;;;;;;;0.10;0.10;;;;;;;12.46;63.54;99819.84;7377433;19;20765;-61
2022/05/24 03:59:46;;;;;;;0.00;0.00;;;;;;;12.50;63.54;99828.44;7377684;19;20082;-61
2022/05/24 04:02:12;;;;;;;0.10;0.10;;;;;;;12.51;63.50;99824.91;7374143;19;20066;-61
2022/05/24 04:04:37;;;;;;;0.08;0.08;;;;;;;12.51;63.36;99825.75;7374485;19;20010;-61
2022/05/24 04:07:03;;;;;;;0.00;0.00;;;;;;;12.53;63.08;99823.91;7378036;19;20446;-61
2022/05/24 04:09:32;;;;;;;0.00;0.00;;;;;;;12.54;63.14;99830.84;7373390;19;20086;-61
2022/05/24 04:11:57;;;;;;;0.10;0.10;;;;;;;12.54;63.35;99830.84;7377841;19;20512;-61
2022/05/24 04:14:23;;;;;;;0.00;0.00;;;;;;;12.54;63.24;99824.78;7375524;19;20015;-61
2022/05/24 04:16:49;;;;;;;0.00;0.00;;;;;;;12.55;63.50;99832.53;7375073;19;20086;-61
2022/05/24 04:19:14;;;;;;;0.00;0.00;;;;;;;12.53;62.95;99829.16;7377661;19;20014;-61
2022/05/24 04:21:39;;;;;;;0.10;0.10;;;;;;;12.54;63.23;99836.09;7373582;19;20036;-61
2022/05/24 04:24:05;;;;;;;0.00;0.00;;;;;;;12.52;62.82;99843.19;7376672;19;20031;-61
2022/05/24 04:26:31;;;;;;;0.00;0.00;;;;;;;12.51;62.80;99844.06;7374816;19;20027;-61
2022/05/24 04:28:57;;;;;;;0.00;0.00;;;;;;;12.51;63.03;99833.59;7372711;19;21139;-61
2022/05/24 04:31:23;;;;;;;0.00;0.00;;;;;;;12.45;63.12;99839.97;7375813;19;20010;-61
2022/05/24 04:33:49;;;;;;;0.00;0.00;;;;;;;12.43;62.88;99844.44;7374982;19;20011;-61
2022/05/24 04:36:15;;;;;;;0.00;0.00;;;;;;;12.40;63.24;99854.19;7375938;19;20027;-61
2022/05/24 04:38:41;;;;;;;0.00;0.00;;;;;;;12.30;63.26;99837.16;7375592;19;20010;-61
2022/05/24 04:43:51;;;;;;;0.00;0.00;;;;;;;12.33;63.64;99863.22;7376453;19;20035;-61
2022/05/24 04:46:16;;;;;;;0.00;0.00;;;;;;;12.32;63.48;99856.28;7376107;19;20011;-61
2022/05/24 04:48:42;;;;;;;0.00;0.00;;;;;;;12.33;63.58;99858.00;7375122;19;20360;-61
2022/05/24 04:51:07;;;;;;;0.10;0.10;;;;;;;12.32;63.87;99861.53;7373281;19;20027;-61
2022/05/24 04:53:32;;;;;;;0.10;0.10;;;;;;;12.24;63.00;99853.13;7374346;19;20010;-61
2022/05/24 04:55:58;;;;;;;0.10;0.10;;;;;;;12.33;64.21;99864.06;7373856;19;20011;-61
2022/05/24 04:58:23;;;;;;;0.05;0.05;;;;;;;12.35;64.14;99866.63;7370300;19;20022;-61
2022/05/24 05:00:49;;;;;;;0.00;0.00;;;;;;;12.37;63.73;99870.03;7373490;19;20027;-61
2022/05/24 05:03:19;;;;;;;0.00;0.00;;;;;;;12.39;63.82;99862.94;7375054;19;20462;-61
2022/05/24 05:05:46;;;;;;;0.10;0.10;;;;;;;12.39;64.11;99870.81;7374485;19;20073;-60
2022/05/24 05:08:12;;;;;;;0.00;0.00;;;;;;;12.39;64.28;99868.19;7377026;19;20017;-61
2022/05/24 05:10:37;;;;;;;0.00;0.00;;;;;;;12.43;64.36;99875.00;7372986;19;20014;-61
2022/05/24 05:13:04;;;;;;;0.00;0.00;;;;;;;12.46;64.47;99880.09;7373852;19;20018;-61
2022/05/24 05:15:31;;;;;;;0.05;0.05;;;;;;;12.47;64.35;99881.81;7373285;19;20526;-61
2022/05/24 05:18:04;;;;;;;0.00;0.00;;;;;;;12.53;63.66;99891.16;7376782;19;20855;-61
2022/05/24 05:20:30;;;;;;;0.00;0.00;;;;;;;12.53;64.50;99886.78;7371177;19;20101;-61
2022/05/24 05:22:55;;;;;;;0.10;0.10;;;;;;;12.56;64.02;99897.09;7374561;19;20030;-61
2022/05/24 05:25:21;;;;;;;0.10;0.10;;;;;;;12.58;64.25;99900.50;7372644;19;20484;-61
2022/05/24 05:27:46;;;;;;;0.00;0.00;;;;;;;12.61;64.21;99897.75;7375752;19;20019;-61
2022/05/24 05:32:56;;;;;;;0.00;0.00;;;;;;;12.66;64.21;99898.38;7375265;19;20017;-61
2022/05/24 05:35:21;;;;;;;0.00;0.00;;;;;;;12.68;64.16;99900.97;7373807;19;20724;-61
2022/05/24 05:37:47;;;;;;;0.00;0.00;;;;;;;12.73;64.04;99909.47;7373648;19;20007;-61
2022/05/24 05:40:13;;;;;;;0.00;0.00;;;;;;;12.77;63.83;99915.41;7375435;19;20523;-61
2022/05/24 05:42:39;;;;;;;0.00;0.00;;;;;;;12.78;64.28;99912.75;7371668;19;20002;-61
2022/05/24 05:45:06;;;;;;;0.00;0.00;;;;;;;12.81;63.92;99911.75;7373382;19;20010;-61
2022/05/24 05:47:31;;;;;;;0.10;0.10;;;;;;;12.82;63.82;99905.56;7372641;19;20354;-61
2022/05/24 05:49:57;;;;;;;0.00;0.00;;;;;;;12.79;63.69;99905.72;7373673;19;20101;-61
2022/05/24 05:52:22;;;;;;;0.00;0.00;;;;;;;12.85;63.43;99908.06;7374040;19;20014;-61
2022/05/24 05:54:47;;;;;;;0.03;0.03;;;;;;;12.92;63.44;99919.97;7373128;19;20011;-62
2022/05/24 05:57:13;;;;;;;0.00;0.00;;;;;;;12.96;63.91;99932.00;7373046;19;20022;-61
2022/05/24 05:59:38;;;;;;;0.03;0.03;;;;;;;12.99;63.50;99922.25;7370217;19;20010;-62
2022/05/24 06:02:05;;;;;;;0.00;0.00;;;;;;;13.02;63.94;99934.34;7367727;19;20010;-61
2022/05/24 06:04:30;;;;;;;0.00;0.00;;;;;;;13.06;63.80;99925.44;7371024;19;20054;-61
2022/05/24 06:06:56;;;;;;;0.00;0.00;;;;;;;13.07;63.41;99919.28;7372293;19;20446;-61
2022/05/24 06:09:21;;;;;;;0.03;0.03;;;;;;;13.13;63.31;99929.50;7370144;19;20031;-61
2022/05/24 06:11:47;;;;;;;0.00;0.00;;;;;;;13.16;63.03;99934.59;7370395;19;20706;-60
2022/05/24 06:14:12;;;;;;;0.10;0.10;;;;;;;13.18;63.67;99926.69;7373325;19;21192;-61
2022/05/24 06:16:38;;;;;;;0.00;0.00;;;;;;;13.23;63.25;99936.06;7370231;19;20017;-61
2022/05/24 06:19:04;;;;;;;0.00;0.00;;;;;;;13.29;63.78;99934.06;7370730;19;20015;-61
2022/05/24 06:21:33;;;;;;;0.00;0.00;;;;;;;13.35;63.48;99936.41;7368782;19;20031;-61
2022/05/24 06:24:03;;;;;;;0.00;0.00;;;;;;;13.41;63.61;99943.97;7369614;19;20470;-61
2022/05/24 06:26:29;;;;;;;0.00;0.00;;;;;;;13.48;63.13;99942.75;7369117;19;20418;-61
2022/05/24 06:28:56;;;;;;;0.00;0.00;;;;;;;13.55;63.30;99946.81;7372049;19;20010;-61
2022/05/24 06:31:21;;;;;;;0.00;0.00;;;;;;;13.60;62.83;99939.59;7371241;19;20024;-61
2022/05/24 06:33:46;;;;;;;0.00;0.00;;;;;;;13.66;62.60;99944.53;7369789;19;20804;-61
2022/05/24 06:36:12;;;;;;;0.00;0.00;;;;;;;13.70;62.79;99946.09;7370719;19;20011;-61
2022/05/24 06:38:37;;;;;;;0.10;0.10;;;;;;;13.76;62.34;99956.28;7371368;19;20022;-61
2022/05/24 06:41:04;;;;;;;0.00;0.00;;;;;;;13.83;62.15;99967.34;7371024;19;20006;-61
2022/05/24 06:43:30;;;;;;;0.00;0.00;;;;;;;13.87;62.28;99968.06;7371181;19;20563;-61
2022/05/24 06:45:55;;;;;;;0.00;0.00;;;;;;;13.93;62.34;99967.75;7369304;19;20070;-61
2022/05/24 06:48:21;;;;;;;0.10;0.10;;;;;;;13.97;61.73;99969.31;7373114;19;20015;-61
2022/05/24 06:50:46;;;;;;;0.00;0.00;;;;;;;14.00;62.03;99977.03;7368144;19;20003;-61
2022/05/24 06:53:12;;;;;;;0.00;0.00;;;;;;;14.05;61.57;99979.44;7371597;19;20018;-61
2022/05/24 06:55:37;;;;;;;0.00;0.00;;;;;;;14.10;60.91;99990.59;7370055;19;20025;-61
2022/05/24 06:58:03;;;;;;;0.00;0.00;;;;;;;14.09;61.53;99989.72;7369249;19;20014;-62
2022/05/24 07:03:15;;;;;;;0.00;0.00;;;;;;;14.12;61.37;99994.81;7370841;19;20617;-62
2022/05/24 07:05:42;;;;;;;0.00;0.00;;;;;;;13.97;61.78;99964.91;7367889;19;20022;-60
2022/05/24 07:08:08;;;;;;;0.00;0.00;;;;;;;14.08;61.93;99998.50;7367719;19;20010;-61
2022/05/24 07:10:35;;;;;;;0.08;0.08;;;;;;;14.09;61.28;100004.59;7368503;19;20392;-61
2022/05/24 07:13:10;;;;;;;0.05;0.05;;;;;;;14.07;61.17;99991.56;7367682;19;21744;-62
2022/05/24 07:15:37;;;;;;;0.03;0.03;;;;;;;13.93;61.74;99975.63;7369239;19;20006;-61
2022/05/24 07:18:03;;;;;;;0.00;0.00;;;;;;;14.03;61.71;100003.13;7369528;19;20022;-62
2022/05/24 07:20:29;;;;;;;0.03;0.03;;;;;;;14.05;61.42;100003.09;7370576;19;20032;-61
2022/05/24 07:23:04;;;;;;;0.10;0.10;;;;;;;14.06;62.09;100008.25;7378689;19;20025;-61
2022/05/24 07:25:30;;;;;;;0.00;0.00;;;;;;;14.10;62.21;100001.94;7373523;19;20006;-61
2022/05/24 07:27:55;;;;;;;0.00;0.00;;;;;;;14.18;61.75;100015.53;7378334;19;20010;-62
2022/05/24 07:30:20;;;;;;;0.00;0.00;;;;;;;14.26;61.51;100008.13;7375991;19;20729;-62
2022/05/24 07:32:47;;;;;;;0.10;0.10;;;;;;;14.33;61.58;99997.31;7378908;19;20136;-62
2022/05/24 07:35:13;;;;;;;0.10;0.10;;;;;;;14.51;61.13;100006.97;7376434;19;20021;-61
2022/05/24 07:37:38;;;;;;;0.00;0.00;;;;;;;14.60;60.12;100011.75;7364735;19;20014;-61
2022/05/24 07:45:48;;;;;;;0.00;0.00;;;;;;;14.83;59.37;100013.19;7376785;19;20495;-62
2022/05/24 07:48:14;;;;;;;0.00;0.00;;;;;;;14.70;59.39;99997.22;7376881;19;20010;-61
2022/05/24 07:50:40;;;;;;;0.10;0.10;;;;;;;14.81;59.50;100016.84;7374421;19;20035;-61
2022/05/24 07:53:08;;;;;;;0.00;0.00;;;;;;;14.80;59.98;100010.75;7375143;19;20035;-61
2022/05/24 07:55:33;;;;;;;0.00;0.00;;;;;;;14.83;59.29;100018.47;7377395;19;20102;-62
2022/05/24 07:57:59;;;;;;;0.00;0.00;;;;;;;14.85;59.19;100016.63;7375173;19;20018;-61
2022/05/24 08:00:24;;;;;;;0.00;0.00;;;;;;;14.87;58.39;100013.91;7375067;19;20011;-62
2022/05/24 08:02:51;;;;;;;0.00;0.00;;;;;;;14.89;58.23;100014.66;7376635;19;20006;-61
2022/05/24 08:05:18;;;;;;;0.00;0.00;;;;;;;14.93;58.02;100013.59;7373998;19;20026;-62
2022/05/24 08:07:45;;;;;;;0.10;0.10;;;;;;;14.98;58.16;100008.94;7377174;19;20017;-62
2022/05/24 08:10:12;;;;;;;0.00;0.00;;;;;;;15.03;58.14;100002.50;7374832;19;21602;-62
2022/05/24 08:12:37;;;;;;;0.05;0.05;;;;;;;15.13;57.96;100012.56;7376269;19;20474;-62
2022/05/24 08:15:03;;;;;;;0.00;0.00;;;;;;;15.17;57.71;100012.31;7376024;19;20046;-62
2022/05/24 08:17:28;;;;;;;0.00;0.00;;;;;;;15.24;57.28;100013.69;7377343;19;20018;-62
2022/05/24 08:19:54;;;;;;;0.00;0.00;;;;;;;15.29;57.13;100022.16;7373063;19;20733;-62
2022/05/24 08:22:20;;;;;;;0.00;0.00;;;;;;;15.19;56.64;99994.66;7376018;19;20010;-62
2022/05/24 08:24:45;;;;;;;0.10;0.10;;;;;;;15.38;56.16;100022.63;7376160;19;20416;-61
2022/05/24 08:27:14;;;;;;;0.08;0.08;;;;;;;15.44;56.25;100015.25;7375331;19;20074;-61
2022/05/24 08:29:40;;;;;;;0.00;0.00;;;;;;;15.55;56.46;100022.56;7373965;19;20014;-62
2022/05/24 08:32:06;;;;;;;0.00;0.00;;;;;;;15.66;56.12;100025.50;7374090;19;21572;-61
2022/05/24 08:34:32;;;;;;;0.10;0.10;;;;;;;15.78;55.48;100029.25;7375835;19;20011;-62
2022/05/24 08:36:57;;;;;;;0.00;0.00;;;;;;;15.82;54.11;100015.00;7373978;19;20066;-61
2022/05/24 08:39:23;;;;;;;0.00;0.00;;;;;;;16.04;55.18;100025.16;7374444;19;20044;-62
2022/05/24 08:42:21;;;;;;;0.10;0.10;;;;;;;16.23;56.26;100031.09;7377916;19;20021;-62
2022/05/24 08:50:51;;;;;;;0.00;0.00;;;;;;;16.38;53.87;100033.81;7372795;19;20017;-61
2022/05/24 08:53:32;;;;;;;0.08;0.08;;;;;;;16.40;54.68;100032.75;7375483;19;20010;-61
2022/05/24 08:55:58;;;;;;;0.00;0.00;;;;;;;16.39;53.74;100040.75;7372743;19;20014;-62
2022/05/24 08:58:30;;;;;;;0.10;0.10;;;;;;;16.35;53.94;100016.38;7375852;19;20026;-62
2022/05/24 09:00:56;;;;;;;0.10;0.10;;;;;;;16.31;53.49;100028.88;7374252;19;20022;-62
2022/05/24 09:03:24;;;;;;;0.08;0.08;;;;;;;16.30;53.94;100024.53;7376172;19;20014;-62
2022/05/24 09:05:57;;;;;;;0.10;0.10;;;;;;;16.26;54.34;100025.63;7373208;19;20006;-62
2022/05/24 09:08:34;;;;;;;0.00;0.00;;;;;;;16.31;54.54;100022.75;7375097;19;20007;-62
2022/05/24 09:10:59;;;;;;;;;;;;;;;16.37;55.20;100022.38;7372461;19;20589;-62
2022/05/24 09:13:40;;;;;;;0.10;0.10;;;;;;;16.33;53.37;100024.38;7376049;19;19926;-62
2022/05/24 09:16:11;;;;;;;0.00;0.00;;;;;;;16.41;53.36;100020.44;7375413;19;20022;-62
2022/05/24 09:18:57;;;;;;;0.00;0.00;;;;;;;16.50;54.61;100027.81;7373500;19;20107;-61
2022/05/24 09:21:31;;;;;;;0.10;0.10;;;;;;;16.58;53.28;100025.59;7374945;19;20015;-61
2022/05/24 09:24:26;;;;;;;0.00;0.00;;;;;;;16.83;54.09;100019.75;7376283;19;20457;-62
2022/05/24 09:27:10;;;;;;;0.08;0.08;;;;;;;17.11;54.00;100014.50;7272555;19;2004809;-62
2022/05/24 09:29:53;;;;;;;0.10;0.10;;;;;;;17.40;53.39;100024.25;7374389;19;20015;-62
2022/05/24 09:32:20;;;;;;;0.10;0.10;;;;;;;17.53;50.98;100012.81;7375663;19;20010;-62
2022/05/24 09:34:46;;;;;;;0.03;0.03;;;;;;;17.83;49.30;100020.63;7373001;19;20379;-62
2022/05/24 09:37:20;;;;;;;0.10;0.10;;;;;;;18.12;51.08;100029.31;7373418;19;20018;-63
2022/05/24 09:40:01;;;;;;;0.10;0.10;;;;;;;18.38;50.08;100024.13;7374265;19;20013;-62
2022/05/24 09:42:36;;;;;;;0.00;0.00;;;;;;;18.56;49.00;100027.38;7373630;19;20018;-62
2022/05/24 09:45:15;;;;;;;0.00;0.00;;;;;;;18.70;49.57;100024.66;7372351;19;20045;-62
2022/05/24 09:47:43;;;;;;;0.10;0.10;;;;;;;18.73;48.55;100029.75;7373093;19;20573;-62
2022/05/24 09:50:35;;;;;;;0.10;0.10;;;;;;;18.87;50.55;100031.47;7375093;19;20339;-62
2022/05/24 09:53:10;;;;;;;0.08;0.08;;;;;;;19.09;48.44;100036.13;7374726;19;20082;-62
2022/05/24 09:55:47;;;;;;;0.00;0.00;;;;;;;19.36;47.96;100042.19;7371845;19;20950;-62
2022/05/24 09:58:25;;;;;;;0.10;0.10;;;;;;;19.56;47.01;100046.06;7375723;19;20006;-62
2022/05/24 10:01:08;;;;;;;0.10;0.10;;;;;;;19.59;47.15;100034.44;7372730;19;20565;-62
2022/05/24 10:03:45;;;;;;;0.10;0.10;;;;;;;19.69;45.35;100051.38;7374782;19;20446;-62
2022/05/24 10:06:22;;;;;;;0.08;0.08;;;;;;;19.63;45.17;100047.38;7372144;19;20162;-62
2022/05/24 10:08:51;;;;;;;0.00;0.00;;;;;;;19.56;44.82;100051.38;7373945;19;20011;-62
2022/05/24 10:11:31;;;;;;;0.10;0.10;;;;;;;19.56;46.66;100050.53;7372800;19;20041;-62
2022/05/24 10:14:06;;;;;;;0.08;0.08;;;;;;;19.50;45.90;100046.50;7373296;19;20017;-62
2022/05/24 10:16:57;;;;;;;0.10;0.10;;;;;;;19.52;47.79;100049.06;7373890;19;20715;-62
2022/05/24 10:19:31;;;;;;;0.00;0.00;;;;;;;19.48;45.84;100043.13;7269258;19;2004444;-62
2022/05/24 10:22:18;;;;;;;0.10;0.10;;;;;;;19.56;45.25;100050.53;7368857;19;20056;-62
2022/05/24 10:24:55;;;;;;;0.10;0.10;;;;;;;19.60;46.08;100052.03;7373620;19;20002;-62
2022/05/24 10:27:36;;;;;;;0.00;0.00;;;;;;;19.60;45.98;100052.03;7371946;19;20051;-62
2022/05/24 10:30:09;;;;;;;0.10;0.10;;;;;;;19.58;45.33;100060.06;7373310;19;20093;-62
2022/05/24 10:39:20;;;;;;;0.10;0.10;;;;;;;19.63;45.55;100063.28;7264559;19;2004517;-62
2022/05/24 10:42:01;;;;;;;0.10;0.10;;;;;;;19.57;44.70;100057.53;7372972;19;20011;-62
2022/05/24 10:44:47;;;;;;;0.10;0.10;;;;;;;19.57;43.87;100062.84;7373205;19;20018;-62
2022/05/24 10:47:31;;;;;;;0.10;0.10;;;;;;;19.50;43.91;100056.25;7370182;19;20002;-63
2022/05/24 10:50:16;;;;;;;0.10;0.10;;;;;;;19.47;45.57;100051.19;7371019;19;20120;-62
2022/05/24 10:52:52;;;;;;;0.00;0.00;;;;;;;19.47;44.45;100059.97;7372644;19;20039;-62
2022/05/24 10:55:19;;;;;;;0.10;0.10;;;;;;;19.41;44.15;100061.25;7370962;19;19999;-63
2022/05/24 10:57:55;;;;;;;0.05;0.05;;;;;;;19.45;44.57;100060.06;7369351;19;20022;-62
2022/05/24 11:00:31;;;;;;;0.10;0.10;;;;;;;19.55;45.42;100070.03;7371221;19;20014;-62
2022/05/24 11:03:13;;;;;;;0.00;0.00;;;;;;;19.65;45.03;100068.44;7369006;19;20003;-62
2022/05/24 11:05:49;;;;;;;0.10;0.10;;;;;;;19.82;45.25;100078.72;7369970;19;20066;-62
2022/05/24 11:08:28;;;;;;;0.10;0.10;;;;;;;20.08;44.78;100074.19;7365699;19;20470;-63
2022/05/24 11:10:56;;;;;;;0.00;0.00;;;;;;;20.51;43.89;100063.13;7367116;19;20022;-62
2022/05/24 11:13:56;;;;;;;0.10;0.10;;;;;;;21.21;46.15;100060.44;7368193;19;20125;-63
2022/05/24 11:16:36;;;;;;;0.00;0.00;;;;;;;21.90;44.89;100056.88;7266334;19;2004388;-63
2022/05/24 11:19:02;;;;;;;0.10;0.10;;;;;;;22.46;40.92;100073.56;7365676;19;20850;-62
2022/05/24 11:21:36;;;;;;;0.10;0.10;;;;;;;23.01;42.23;100069.00;7367878;19;20010;-62
2022/05/24 11:24:06;;;;;;;0.10;0.10;;;;;;;23.21;40.11;100067.28;7367468;19;20033;-63
2022/05/24 11:26:39;;;;;;;0.00;0.00;;;;;;;23.37;39.45;100082.81;7367729;19;20006;-63
2022/05/24 11:29:16;;;;;;;0.10;0.10;;;;;;;23.46;41.76;100105.97;7367713;19;20019;-63
2022/05/24 11:31:47;;;;;;;0.10;0.10;;;;;;;23.29;41.05;100106.59;7368630;19;20006;-63
2022/05/24 11:34:18;;;;;;;0.10;0.10;;;;;;;22.97;40.54;100107.50;7367422;19;20007;-62
2022/05/24 11:37:24;;;;;;;0.10;0.10;;;;;;;22.66;42.59;100108.34;7368532;19;20043;-62
2022/05/24 11:39:50;;;;;;;0.00;0.00;;;;;;;21.99;42.73;100070.25;7255712;19;2005678;-62
2022/05/24 11:42:21;;;;;;;0.10;0.10;;;;;;;22.00;43.20;100109.19;7357008;19;20027;-63
2022/05/24 11:44:48;;;;;;;0.10;0.10;;;;;;;21.77;42.59;100104.84;7358703;19;20932;-62
2022/05/24 11:47:48;;;;;;;0.10;0.10;;;;;;;21.80;44.63;100106.41;7333704;19;20006;-63
2022/05/24 11:50:48;;;;;;;0.10;0.10;;;;;;;21.99;44.57;100109.28;7249846;19;2004457;-62
2022/05/24 11:53:39;;;;;;;0.10;0.10;;;;;;;22.30;44.58;100112.16;7255937;19;2004838;-63
2022/05/24 11:56:10;;;;;;;0.03;0.03;;;;;;;22.58;42.20;100105.47;7256325;19;2004537;-63
2022/05/24 11:58:36;;;;;;;0.10;0.10;;;;;;;22.74;41.02;100109.38;7359265;19;20026;-63
2022/05/24 12:01:01;;;;;;;0.10;0.10;;;;;;;22.96;40.54;100108.47;7358609;19;20701;-63
2022/05/24 12:09:26;;;;;;;0.03;0.03;;;;;;;23.77;39.90;100090.03;7263654;19;2004971;-63
2022/05/24 12:12:27;;;;;;;0.00;0.00;;;;;;;23.97;41.39;100091.78;7363624;19;20018;-63
2022/05/24 12:15:16;;;;;;;0.00;0.00;;;;;;;24.31;40.56;100100.28;7260342;19;2004422;-63
2022/05/24 12:17:43;;;;;;;0.00;0.00;;;;;;;24.50;36.32;100088.84;7356986;19;20085;-63
2022/05/24 12:20:27;;;;;;;;;;;;;;;24.81;39.04;100096.72;7357659;19;20023;-63
2022/05/24 12:23:04;;;;;;;0.00;0.00;;;;;;;24.93;36.85;100084.91;7353527;19;19921;-63
2022/05/24 12:26:10;;;;;;;0.10;0.10;;;;;;;25.24;38.83;100087.41;7351380;19;20011;-63
2022/05/24 12:28:37;;;;;;;0.10;0.10;;;;;;;25.56;35.71;100081.72;7257726;19;2004552;-63
2022/05/24 12:31:22;;;;;;;0.00;0.00;;;;;;;25.98;37.33;100087.47;7366544;19;20014;-63
2022/05/24 12:33:50;;;;;;;0.10;0.10;;;;;;;26.27;34.21;100097.16;7364418;19;20002;-63